createdAt,value
2023-01-12T00:00:55.907Z,84.13085938
2023-01-12T00:01:56.866Z,84.03320313
2023-01-12T00:02:57.623Z,83.82568359
2023-01-12T00:03:58.528Z,83.61816406
2023-01-12T00:05:00.218Z,83.61816406
2023-01-12T00:06:01.073Z,83.41064453
2023-01-12T00:07:01.860Z,83.41064453
2023-01-12T00:08:05.248Z,83.41064453
2023-01-12T00:09:03.421Z,83.09936523
2023-01-12T00:10:04.185Z,83.203125
2023-01-12T00:11:05.091Z,83.203125
2023-01-12T00:12:05.958Z,82.99560547
2023-01-12T00:13:06.797Z,82.48291016
2023-01-12T00:14:07.727Z,82.37915039
2023-01-12T00:15:09.256Z,82.17163086
2023-01-12T00:16:10.107Z,82.06787109
2023-01-12T00:17:11.035Z,81.86035156
2023-01-12T00:18:12.389Z,81.86035156
2023-01-12T00:19:43.962Z,81.86035156
2023-01-12T00:20:44.848Z,81.65893555
2023-01-12T00:21:46.438Z,81.41479492
2023-01-12T00:22:47.297Z,81.20727539
2023-01-12T00:23:48.209Z,81.20727539
2023-01-12T00:24:50.174Z,80.99975586
2023-01-12T00:25:50.607Z,80.89599609
2023-01-12T00:26:51.385Z,80.79223633
2023-01-12T00:27:52.871Z,80.5847168
2023-01-12T00:28:53.617Z,80.68847656
2023-01-12T00:29:54.380Z,80.68847656
2023-01-12T00:30:55.124Z,80.68847656
2023-01-12T00:31:55.957Z,80.5847168
2023-01-12T00:32:56.965Z,80.48095703
2023-01-12T00:33:57.834Z,80.5847168
2023-01-12T00:34:59.407Z,80.5847168
2023-01-12T00:36:00.222Z,80.5847168
2023-01-12T00:37:00.996Z,80.5847168
2023-01-12T00:38:01.796Z,80.68847656
2023-01-12T00:39:02.614Z,80.68847656
2023-01-12T00:40:03.498Z,80.48095703
2023-01-12T00:41:04.151Z,80.48095703
2023-01-12T00:42:04.975Z,80.68847656
2023-01-12T00:43:05.799Z,80.5847168
2023-01-12T00:44:06.575Z,80.37719727
2023-01-12T00:45:08.343Z,80.48095703
2023-01-12T00:46:09.182Z,80.37719727
2023-01-12T00:47:09.955Z,80.27954102
2023-01-12T00:48:10.831Z,80.27954102
2023-01-12T00:49:12.108Z,80.17578125
2023-01-12T00:50:43.482Z,79.96826172
2023-01-12T00:51:44.310Z,79.76074219
2023-01-12T00:52:45.730Z,79.44946289
2023-01-12T00:53:46.531Z,79.34570313
2023-01-12T00:54:47.889Z,79.44946289
2023-01-12T00:55:48.799Z,79.34570313
2023-01-12T00:56:49.700Z,78.72924805
2023-01-12T00:57:50.497Z,78.41796875
2023-01-12T00:58:51.278Z,78.31420898
2023-01-12T00:59:52.106Z,78.62548828
2023-01-12T01:00:53.116Z,78.62548828
2023-01-12T01:01:53.928Z,78.21044922
2023-01-12T01:02:54.724Z,78.11279297
2023-01-12T01:03:55.459Z,77.90527344
2023-01-12T01:04:56.913Z,77.80151367
2023-01-12T01:05:57.780Z,77.90527344
2023-01-12T01:06:58.724Z,77.69775391
2023-01-12T01:07:59.653Z,77.59399414
2023-01-12T01:09:00.457Z,77.59399414
2023-01-12T01:10:01.213Z,77.28271484
2023-01-12T01:11:02.912Z,77.38647461
2023-01-12T01:12:04.213Z,77.28271484
2023-01-12T01:13:04.450Z,76.97753906
2023-01-12T01:14:05.194Z,76.97753906
2023-01-12T01:15:06.746Z,76.77001953
2023-01-12T01:16:07.597Z,76.45874023
2023-01-12T01:17:08.450Z,76.5625
2023-01-12T01:18:09.814Z,76.66625977
2023-01-12T01:19:10.688Z,76.35498047
2023-01-12T01:20:11.888Z,76.14746094
2023-01-12T01:21:43.078Z,76.2512207
2023-01-12T01:22:44.773Z,76.35498047
2023-01-12T01:23:45.632Z,76.35498047
2023-01-12T01:24:47.361Z,76.35498047
2023-01-12T01:25:48.210Z,76.35498047
2023-01-12T01:26:49.011Z,76.45874023
2023-01-12T01:27:50.934Z,76.45874023
2023-01-12T01:28:51.794Z,76.45874023
2023-01-12T01:29:52.792Z,76.45874023
2023-01-12T01:30:53.593Z,76.5625
2023-01-12T01:31:54.356Z,76.5625
2023-01-12T01:32:55.266Z,76.5625
2023-01-12T01:33:56.146Z,76.5625
2023-01-12T01:34:57.850Z,76.5625
2023-01-12T01:35:58.627Z,76.35498047
2023-01-12T01:36:59.392Z,76.18408203
2023-01-12T01:38:00.276Z,76.08032227
2023-01-12T01:39:01.182Z,76.18408203
2023-01-12T01:40:02.080Z,76.18408203
2023-01-12T01:41:02.847Z,76.08032227
2023-01-12T01:42:03.585Z,76.08032227
2023-01-12T01:43:04.440Z,76.08032227
2023-01-12T01:44:05.097Z,76.2878418
2023-01-12T01:45:06.865Z,76.2878418
2023-01-12T01:46:07.661Z,76.04370117
2023-01-12T01:47:08.369Z,75.73852539
2023-01-12T01:48:09.233Z,75.53100586
2023-01-12T01:49:10.154Z,75.46386719
2023-01-12T01:50:11.035Z,75.87280273
2023-01-12T01:51:42.375Z,75.56762695
2023-01-12T01:52:43.856Z,75.76904297
2023-01-12T01:53:44.692Z,75.76904297
2023-01-12T01:54:45.615Z,75.76904297
2023-01-12T01:55:47.402Z,75.87280273
2023-01-12T01:56:48.211Z,75.76904297
2023-01-12T01:57:48.947Z,75.76904297
2023-01-12T01:58:49.787Z,75.9765625
2023-01-12T01:59:50.737Z,76.2878418
2023-01-12T02:00:51.647Z,76.2878418
2023-01-12T02:01:52.723Z,76.18408203
2023-01-12T02:02:53.635Z,76.18408203
2023-01-12T02:03:54.413Z,76.2878418
2023-01-12T02:04:55.916Z,76.2878418
2023-01-12T02:05:56.869Z,76.39160156
2023-01-12T02:06:57.812Z,75.9765625
2023-01-12T02:07:58.556Z,75.9765625
2023-01-12T02:08:59.397Z,75.87280273
2023-01-12T02:10:00.912Z,75.9765625
2023-01-12T02:11:01.841Z,76.08032227
2023-01-12T02:12:02.849Z,76.18408203
2023-01-12T02:13:03.671Z,75.76904297
2023-01-12T02:14:04.471Z,75.67138672
2023-01-12T02:15:05.927Z,75.67138672
2023-01-12T02:16:06.915Z,75.76904297
2023-01-12T02:17:07.827Z,75.67138672
2023-01-12T02:18:08.643Z,75.76904297
2023-01-12T02:19:09.440Z,75.87280273
2023-01-12T02:20:10.335Z,75.87280273
2023-01-12T02:21:41.940Z,75.87280273
2023-01-12T02:22:43.478Z,75.87280273
2023-01-12T02:23:44.257Z,75.9765625
2023-01-12T02:24:45.082Z,75.87280273
2023-01-12T02:25:46.790Z,75.76904297
2023-01-12T02:26:47.673Z,75.87280273
2023-01-12T02:27:48.647Z,75.87280273
2023-01-12T02:28:49.528Z,75.76904297
2023-01-12T02:29:50.242Z,75.76904297
2023-01-12T02:30:50.992Z,75.76904297
2023-01-12T02:31:51.882Z,75.87280273
2023-01-12T02:32:53.917Z,75.9765625
2023-01-12T02:33:54.783Z,76.08032227
2023-01-12T02:34:55.573Z,76.08032227
2023-01-12T02:35:57.519Z,75.9765625
2023-01-12T02:36:58.344Z,76.08032227
2023-01-12T02:37:59.231Z,75.9765625
2023-01-12T02:39:00.104Z,75.87280273
2023-01-12T02:40:00.863Z,75.87280273
2023-01-12T02:41:02.367Z,75.76904297
2023-01-12T02:42:03.197Z,75.76904297
2023-01-12T02:43:04.170Z,75.87280273
2023-01-12T02:44:05.039Z,76.08032227
2023-01-12T02:45:06.901Z,76.08032227
2023-01-12T02:46:07.806Z,75.87280273
2023-01-12T02:47:08.575Z,75.9765625
2023-01-12T02:48:09.476Z,76.39160156
2023-01-12T02:49:10.798Z,76.70288086
2023-01-12T02:50:42.769Z,76.70288086
2023-01-12T02:51:43.549Z,76.80664063
2023-01-12T02:52:44.324Z,76.90429688
2023-01-12T02:53:45.301Z,76.70288086
2023-01-12T02:54:46.195Z,76.80664063
2023-01-12T02:55:47.890Z,77.11181641
2023-01-12T02:56:48.721Z,77.21557617
2023-01-12T02:57:49.525Z,77.1484375
2023-01-12T02:58:50.376Z,77.35595703
2023-01-12T02:59:51.248Z,77.66723633
2023-01-12T03:00:53.084Z,77.97851563
2023-01-12T03:01:53.775Z,78.24707031
2023-01-12T03:02:54.693Z,78.45458984
2023-01-12T03:03:55.425Z,78.35083008
2023-01-12T03:04:56.378Z,78.07617188
2023-01-12T03:05:57.865Z,77.83813477
2023-01-12T03:06:58.794Z,77.66723633
2023-01-12T03:07:59.624Z,77.66723633
2023-01-12T03:09:00.478Z,77.66723633
2023-01-12T03:10:01.307Z,77.66723633
2023-01-12T03:11:02.324Z,77.66723633
2023-01-12T03:12:03.235Z,77.35595703
2023-01-12T03:13:04.078Z,76.63574219
2023-01-12T03:14:05.003Z,76.73339844
2023-01-12T03:15:05.821Z,76.63574219
2023-01-12T03:16:07.370Z,76.8371582
2023-01-12T03:17:08.198Z,76.8371582
2023-01-12T03:18:08.973Z,76.53198242
2023-01-12T03:19:09.887Z,76.42822266
2023-01-12T03:20:41.297Z,76.01318359
2023-01-12T03:21:42.948Z,75.90942383
2023-01-12T03:22:43.845Z,75.90942383
2023-01-12T03:23:44.643Z,75.90942383
2023-01-12T03:24:45.431Z,75.80566406
2023-01-12T03:25:46.774Z,75.7019043
2023-01-12T03:26:48.396Z,75.90942383
2023-01-12T03:27:49.272Z,75.90942383
2023-01-12T03:28:50.134Z,76.11694336
2023-01-12T03:29:50.910Z,76.11694336
2023-01-12T03:30:51.690Z,76.22070313
2023-01-12T03:31:52.719Z,76.42822266
2023-01-12T03:32:53.610Z,76.53198242
2023-01-12T03:33:54.716Z,76.73339844
2023-01-12T03:34:55.459Z,76.70288086
2023-01-12T03:35:57.059Z,76.59912109
2023-01-12T03:36:58.195Z,76.08032227
2023-01-12T03:37:59.131Z,75.76904297
2023-01-12T03:39:00.059Z,75.7019043
2023-01-12T03:40:00.880Z,75.80566406
2023-01-12T03:41:02.292Z,75.90942383
2023-01-12T03:42:03.183Z,76.01318359
2023-01-12T03:43:04.084Z,76.01318359
2023-01-12T03:44:05.011Z,76.11694336
2023-01-12T03:45:05.918Z,76.42822266
2023-01-12T03:46:07.354Z,76.53198242
2023-01-12T03:47:08.237Z,76.63574219
2023-01-12T03:48:09.165Z,76.94091797
2023-01-12T03:49:40.913Z,76.63574219
2023-01-12T03:50:41.787Z,76.42822266
2023-01-12T03:51:42.562Z,76.42822266
2023-01-12T03:52:43.365Z,76.42822266
2023-01-12T03:53:44.917Z,76.42822266
2023-01-12T03:54:45.873Z,76.32446289
2023-01-12T03:55:47.507Z,76.11694336
2023-01-12T03:56:48.134Z,76.25732422
2023-01-12T03:57:48.966Z,76.5625
2023-01-12T03:58:49.871Z,76.8737793
2023-01-12T03:59:50.889Z,76.97753906
2023-01-12T04:00:51.847Z,77.08129883
2023-01-12T04:01:52.891Z,76.66625977
2023-01-12T04:02:53.448Z,76.66625977
2023-01-12T04:03:54.226Z,76.77001953
2023-01-12T04:04:55.073Z,76.8371582
2023-01-12T04:05:56.934Z,76.42822266
2023-01-12T04:06:57.785Z,75.90942383
2023-01-12T04:07:58.691Z,75.7019043
2023-01-12T04:08:59.554Z,75.08544922
2023-01-12T04:10:00.517Z,74.70703125
2023-01-12T04:11:01.415Z,74.98168945
2023-01-12T04:12:02.905Z,75.01220703
2023-01-12T04:13:03.684Z,74.81079102
2023-01-12T04:14:04.484Z,74.91455078
2023-01-12T04:15:05.390Z,75.08544922
2023-01-12T04:16:06.916Z,75.08544922
2023-01-12T04:17:07.691Z,75.08544922
2023-01-12T04:18:09.845Z,75.18920898
2023-01-12T04:19:41.004Z,75.08544922
2023-01-12T04:20:41.907Z,75.18920898
2023-01-12T04:21:42.770Z,75.29296875
2023-01-12T04:22:43.607Z,75.390625
2023-01-12T04:23:45.263Z,75.29296875
2023-01-12T04:24:46.053Z,75.49438477
2023-01-12T04:25:47.004Z,75.7019043
2023-01-12T04:26:48.361Z,75.80566406
2023-01-12T04:27:49.194Z,75.90942383
2023-01-12T04:28:49.991Z,76.11694336
2023-01-12T04:29:50.748Z,76.42822266
2023-01-12T04:30:52.407Z,76.73339844
2023-01-12T04:31:53.323Z,77.04467773
2023-01-12T04:32:54.175Z,77.04467773
2023-01-12T04:33:55.007Z,77.1484375
2023-01-12T04:34:55.862Z,77.4597168
2023-01-12T04:36:27.703Z,77.70385742
2023-01-12T04:37:59.067Z,77.80761719
2023-01-12T04:38:59.961Z,77.87475586
2023-01-12T04:40:00.755Z,77.90527344
2023-01-12T04:41:01.468Z,77.97851563
2023-01-12T04:42:02.901Z,77.97851563
2023-01-12T04:43:07.017Z,77.87475586
2023-01-12T04:44:04.601Z,77.97851563
2023-01-12T04:45:05.457Z,78.07617188
2023-01-12T04:46:06.969Z,78.17993164
2023-01-12T04:47:07.741Z,78.17993164
2023-01-12T04:48:08.700Z,78.28369141
2023-01-12T04:49:40.339Z,78.28369141
2023-01-12T04:50:41.097Z,78.3203125
2023-01-12T04:51:42.891Z,78.42407227
2023-01-12T04:52:43.761Z,78.42407227
2023-01-12T04:53:44.876Z,78.52783203
2023-01-12T04:54:45.621Z,78.52783203
2023-01-12T04:55:46.465Z,78.49121094
2023-01-12T04:56:47.751Z,78.28369141
2023-01-12T04:57:48.591Z,78.38745117
2023-01-12T04:58:49.550Z,78.38745117
2023-01-12T04:59:50.524Z,78.38745117
2023-01-12T05:00:51.430Z,78.5949707
2023-01-12T05:01:52.237Z,78.49121094
2023-01-12T05:02:52.945Z,77.87475586
2023-01-12T05:03:53.966Z,77.66723633
2023-01-12T05:04:55.411Z,77.66723633
2023-01-12T05:05:56.275Z,77.87475586
2023-01-12T05:06:57.790Z,77.87475586
2023-01-12T05:07:58.552Z,77.66723633
2023-01-12T05:08:59.481Z,77.56347656
2023-01-12T05:10:00.643Z,77.77099609
2023-01-12T05:11:02.189Z,77.56347656
2023-01-12T05:12:03.965Z,77.25219727
2023-01-12T05:13:05.612Z,77.1484375
2023-01-12T05:14:06.628Z,76.97753906
2023-01-12T05:15:07.561Z,76.77001953
2023-01-12T05:16:09.671Z,76.42822266
2023-01-12T05:17:41.968Z,76.42822266
2023-01-12T05:18:42.891Z,76.11694336
2023-01-12T05:19:43.874Z,76.04980469
2023-01-12T05:20:44.668Z,76.36108398
2023-01-12T05:21:45.548Z,75.32348633
2023-01-12T05:22:46.413Z,75.32348633
2023-01-12T05:23:47.851Z,75.21972656
2023-01-12T05:24:48.693Z,75.01220703
2023-01-12T05:25:49.590Z,74.87792969
2023-01-12T05:26:51.372Z,74.77416992
2023-01-12T05:27:52.138Z,74.87792969
2023-01-12T05:28:52.975Z,74.46289063
2023-01-12T05:29:53.762Z,74.56665039
2023-01-12T05:30:54.807Z,74.67041016
2023-01-12T05:31:55.647Z,74.98168945
2023-01-12T05:32:56.536Z,75.08544922
2023-01-12T05:33:57.537Z,74.87792969
2023-01-12T05:34:58.233Z,74.77416992
2023-01-12T05:35:59.038Z,74.98168945
2023-01-12T05:37:00.861Z,75.18920898
2023-01-12T05:38:01.754Z,75.08544922
2023-01-12T05:39:02.586Z,74.98168945
2023-01-12T05:40:03.389Z,74.98168945
2023-01-12T05:41:04.269Z,74.87792969
2023-01-12T05:42:05.158Z,74.77416992
2023-01-12T05:43:06.901Z,74.87792969
2023-01-12T05:44:07.834Z,74.77416992
2023-01-12T05:45:39.437Z,74.87792969
2023-01-12T05:46:40.934Z,74.81079102
2023-01-12T05:47:41.830Z,74.49951172
2023-01-12T05:48:42.617Z,74.39575195
2023-01-12T05:49:43.406Z,74.39575195
2023-01-12T05:50:44.267Z,74.39575195
2023-01-12T05:51:45.056Z,74.29199219
2023-01-12T05:52:45.967Z,74.39575195
2023-01-12T05:53:47.409Z,74.29199219
2023-01-12T05:54:48.300Z,74.39575195
2023-01-12T05:55:49.151Z,74.49951172
2023-01-12T05:56:50.882Z,74.18823242
2023-01-12T05:57:51.748Z,74.18823242
2023-01-12T05:58:52.457Z,73.98071289
2023-01-12T05:59:53.194Z,73.66943359
2023-01-12T06:00:54.098Z,73.63891602
2023-01-12T06:01:54.884Z,73.74267578
2023-01-12T06:02:55.613Z,73.74267578
2023-01-12T06:03:56.458Z,73.63891602
2023-01-12T06:04:57.645Z,73.43139648
2023-01-12T06:05:58.476Z,73.43139648
2023-01-12T06:06:59.874Z,73.53515625
2023-01-12T06:08:00.802Z,73.74267578
2023-01-12T06:09:01.793Z,73.74267578
2023-01-12T06:10:02.599Z,73.63891602
2023-01-12T06:11:03.376Z,73.53515625
2023-01-12T06:12:04.155Z,73.22387695
2023-01-12T06:13:04.991Z,73.43139648
2023-01-12T06:14:05.759Z,73.63891602
2023-01-12T06:15:06.817Z,73.63891602
2023-01-12T06:16:07.735Z,73.53515625
2023-01-12T06:17:39.745Z,73.74267578
2023-01-12T06:18:41.380Z,73.95019531
2023-01-12T06:19:42.175Z,74.15161133
2023-01-12T06:20:42.929Z,74.25537109
2023-01-12T06:21:44.371Z,74.15161133
2023-01-12T06:22:45.324Z,73.95019531
2023-01-12T06:23:46.596Z,74.04785156
2023-01-12T06:24:47.343Z,73.84643555
2023-01-12T06:25:48.286Z,73.95019531
2023-01-12T06:26:49.894Z,74.15161133
2023-01-12T06:27:50.822Z,74.25537109
2023-01-12T06:28:51.768Z,74.25537109
2023-01-12T06:29:52.856Z,74.25537109
2023-01-12T06:30:53.692Z,74.25537109
2023-01-12T06:31:54.502Z,74.46289063
2023-01-12T06:32:55.557Z,74.56665039
2023-01-12T06:33:56.441Z,74.56665039
2023-01-12T06:34:59.542Z,74.67041016
2023-01-12T06:35:58.197Z,74.56665039
2023-01-12T06:36:59.858Z,74.56665039
2023-01-12T06:38:00.647Z,74.56665039
2023-01-12T06:39:01.698Z,74.56665039
2023-01-12T06:40:02.383Z,74.56665039
2023-01-12T06:41:03.131Z,74.46289063
2023-01-12T06:42:03.994Z,74.67041016
2023-01-12T06:43:04.745Z,74.77416992
2023-01-12T06:44:05.512Z,74.77416992
2023-01-12T06:45:06.301Z,74.77416992
2023-01-12T06:46:07.141Z,74.67041016
2023-01-12T06:47:39.117Z,74.46289063
2023-01-12T06:48:40.859Z,74.15161133
2023-01-12T06:49:41.720Z,74.35913086
2023-01-12T06:50:42.588Z,74.67041016
2023-01-12T06:51:43.409Z,74.77416992
2023-01-12T06:52:44.206Z,74.77416992
2023-01-12T06:53:45.082Z,74.46289063
2023-01-12T06:54:46.823Z,74.67041016
2023-01-12T06:55:47.615Z,74.87792969
2023-01-12T06:56:48.575Z,74.46289063
2023-01-12T06:57:50.694Z,74.46289063
2023-01-12T06:58:51.662Z,74.56665039
2023-01-12T06:59:52.540Z,74.98168945
2023-01-12T07:00:53.236Z,75.390625
2023-01-12T07:01:54.034Z,75.18920898
2023-01-12T07:02:54.638Z,74.77416992
2023-01-12T07:03:55.534Z,74.77416992
2023-01-12T07:04:56.375Z,75.18920898
2023-01-12T07:05:57.133Z,74.70703125
2023-01-12T07:06:59.366Z,74.29199219
2023-01-12T07:08:00.126Z,74.39575195
2023-01-12T07:09:00.896Z,75.1159668
2023-01-12T07:10:01.829Z,75.7019043
2023-01-12T07:11:03.232Z,75.49438477
2023-01-12T07:12:03.986Z,74.25537109
2023-01-12T07:13:04.739Z,73.74267578
2023-01-12T07:14:06.688Z,73.84643555
2023-01-12T07:15:06.408Z,73.95019531
2023-01-12T07:16:07.261Z,73.74267578
2023-01-12T07:17:39.886Z,74.25537109
2023-01-12T07:18:40.688Z,74.67041016
2023-01-12T07:19:42.011Z,75.08544922
2023-01-12T07:20:42.788Z,74.77416992
2023-01-12T07:21:44.388Z,74.98168945
2023-01-12T07:22:45.188Z,74.98168945
2023-01-12T07:23:45.980Z,74.56665039
2023-01-12T07:24:46.828Z,74.15161133
2023-01-12T07:25:47.695Z,74.04785156
2023-01-12T07:26:48.636Z,74.15161133
2023-01-12T07:27:50.223Z,74.25537109
2023-01-12T07:28:51.053Z,73.95019531
2023-01-12T07:29:51.910Z,74.25537109
2023-01-12T07:30:52.850Z,74.56665039
2023-01-12T07:31:53.645Z,74.77416992
2023-01-12T07:32:54.406Z,75.08544922
2023-01-12T07:33:55.281Z,75.18920898
2023-01-12T07:34:56.199Z,75.18920898
2023-01-12T07:35:56.969Z,75.18920898
2023-01-12T07:36:57.824Z,75.18920898
2023-01-12T07:37:59.240Z,75.29296875
2023-01-12T07:39:00.021Z,75.390625
2023-01-12T07:40:00.923Z,75.59814453
2023-01-12T07:41:01.724Z,75.390625
2023-01-12T07:42:02.542Z,75.390625
2023-01-12T07:43:03.430Z,75.29296875
2023-01-12T07:44:04.303Z,75.29296875
2023-01-12T07:45:05.042Z,75.390625
2023-01-12T07:46:05.869Z,75.18920898
2023-01-12T07:47:07.432Z,75.59814453
2023-01-12T07:48:38.595Z,75.80566406
2023-01-12T07:49:40.244Z,75.7019043
2023-01-12T07:50:41.035Z,75.7019043
2023-01-12T07:51:41.765Z,75.90942383
2023-01-12T07:52:42.552Z,76.22070313
2023-01-12T07:53:43.394Z,76.32446289
2023-01-12T07:54:44.859Z,76.22070313
2023-01-12T07:55:45.656Z,76.22070313
2023-01-12T07:56:46.479Z,76.22070313
2023-01-12T07:57:47.881Z,76.22070313
2023-01-12T07:58:48.650Z,76.32446289
2023-01-12T07:59:49.438Z,75.7019043
2023-01-12T08:00:50.237Z,74.98168945
2023-01-12T08:01:53.115Z,74.98168945
2023-01-12T08:02:51.770Z,75.08544922
2023-01-12T08:03:52.614Z,75.390625
2023-01-12T08:04:53.388Z,75.80566406
2023-01-12T08:05:54.209Z,76.01318359
2023-01-12T08:06:54.922Z,75.7019043
2023-01-12T08:07:56.294Z,75.18920898
2023-01-12T08:08:57.023Z,75.08544922
2023-01-12T08:09:58.092Z,74.84130859
2023-01-12T08:10:59.379Z,74.32861328
2023-01-12T08:12:00.161Z,74.35913086
2023-01-12T08:13:00.948Z,74.15161133
2023-01-12T08:14:01.783Z,73.95019531
2023-01-12T08:15:03.382Z,74.46289063
2023-01-12T08:16:04.262Z,75.29296875
2023-01-12T08:17:05.901Z,75.80566406
2023-01-12T08:18:08.007Z,76.15356445
2023-01-12T08:19:39.118Z,75.73852539
2023-01-12T08:20:39.941Z,75.84228516
2023-01-12T08:21:40.774Z,76.15356445
2023-01-12T08:22:41.603Z,75.94604492
2023-01-12T08:23:42.442Z,75.94604492
2023-01-12T08:24:43.897Z,75.94604492
2023-01-12T08:25:44.830Z,75.94604492
2023-01-12T08:26:45.541Z,75.63476563
2023-01-12T08:27:46.836Z,75.7019043
2023-01-12T08:28:47.674Z,75.01220703
2023-01-12T08:29:48.497Z,74.98168945
2023-01-12T08:30:49.330Z,74.98168945
2023-01-12T08:31:50.091Z,74.77416992
2023-01-12T08:32:50.899Z,74.87792969
2023-01-12T08:33:51.791Z,74.67041016
2023-01-12T08:34:52.645Z,74.67041016
2023-01-12T08:35:54.364Z,74.77416992
2023-01-12T08:36:55.124Z,74.35913086
2023-01-12T08:37:56.841Z,74.25537109
2023-01-12T08:38:57.735Z,74.25537109
2023-01-12T08:39:58.506Z,74.15161133
2023-01-12T08:40:59.307Z,74.04785156
2023-01-12T08:42:00.105Z,73.95019531
2023-01-12T08:43:00.860Z,73.60229492
2023-01-12T08:44:01.677Z,73.43139648
2023-01-12T08:45:02.524Z,73.29101563
2023-01-12T08:46:03.305Z,73.19335938
2023-01-12T08:47:04.110Z,72.77832031
2023-01-12T08:48:05.815Z,72.88208008
2023-01-12T08:49:07.899Z,71.74682617
2023-01-12T08:50:39.091Z,71.22802734
2023-01-12T08:51:39.906Z,71.43554688
2023-01-12T08:52:40.687Z,71.53930664
2023-01-12T08:53:41.488Z,71.60644531
2023-01-12T08:54:42.290Z,71.30126953
2023-01-12T08:55:43.086Z,70.47119141
2023-01-12T08:56:43.846Z,70.26977539
2023-01-12T08:57:45.370Z,70.16601563
2023-01-12T08:58:46.191Z,69.95849609
2023-01-12T08:59:46.983Z,69.85473633
2023-01-12T09:00:47.854Z,69.43969727
2023-01-12T09:01:48.747Z,69.40917969
2023-01-12T09:02:49.379Z,69.09790039
2023-01-12T09:03:50.132Z,69.09790039
2023-01-12T09:04:51.835Z,69.09790039
2023-01-12T09:05:52.644Z,69.51293945
2023-01-12T09:06:53.406Z,69.72045898
2023-01-12T09:07:54.846Z,69.68994141
2023-01-12T09:08:55.651Z,69.58618164
2023-01-12T09:09:56.411Z,69.68994141
2023-01-12T09:10:57.731Z,69.78759766
2023-01-12T09:11:58.598Z,69.78759766
2023-01-12T09:12:59.410Z,69.58618164
2023-01-12T09:14:00.409Z,68.96362305
2023-01-12T09:15:01.242Z,69.37866211
2023-01-12T09:16:12.333Z,69.37866211
2023-01-12T09:17:02.871Z,68.85986328
2023-01-12T09:18:04.245Z,68.5546875
2023-01-12T09:19:05.906Z,68.21289063
2023-01-12T09:20:37.417Z,68.42041016
2023-01-12T09:21:38.182Z,68.62182617
2023-01-12T09:22:39.074Z,68.31665039
2023-01-12T09:23:39.900Z,68.21289063
2023-01-12T09:24:40.726Z,68.10913086
2023-01-12T09:25:42.423Z,68.31665039
2023-01-12T09:26:43.115Z,68.52416992
2023-01-12T09:27:43.931Z,68.10913086
2023-01-12T09:28:45.305Z,67.90161133
2023-01-12T09:29:46.114Z,68.10913086
2023-01-12T09:30:48.714Z,68.21289063
2023-01-12T09:31:47.822Z,68.10913086
2023-01-12T09:32:48.497Z,68.10913086
2023-01-12T09:33:49.293Z,68.42041016
2023-01-12T09:34:50.160Z,69.140625
2023-01-12T09:35:50.999Z,70.68481445
2023-01-12T09:36:51.752Z,70.89233398
2023-01-12T09:37:53.368Z,71.20361328
2023-01-12T09:38:54.223Z,71.50878906
2023-01-12T09:39:55.823Z,72.33276367
2023-01-12T09:40:56.738Z,72.43652344
2023-01-12T09:41:57.690Z,72.64404297
2023-01-12T09:42:58.549Z,72.64404297
2023-01-12T09:43:59.401Z,72.74780273
2023-01-12T09:45:00.151Z,72.8515625
2023-01-12T09:46:03.287Z,72.64404297
2023-01-12T09:47:01.925Z,72.33276367
2023-01-12T09:48:03.353Z,72.02758789
2023-01-12T09:49:04.245Z,72.02758789
2023-01-12T09:50:09.022Z,72.02758789
2023-01-12T09:51:06.885Z,72.22900391
2023-01-12T09:52:38.151Z,72.30224609
2023-01-12T09:53:38.886Z,72.40600586
2023-01-12T09:54:39.615Z,72.30224609
2023-01-12T09:55:41.396Z,72.50976563
2023-01-12T09:56:42.251Z,72.81494141
2023-01-12T09:57:43.039Z,73.02246094
2023-01-12T09:58:44.782Z,73.02246094
2023-01-12T09:59:45.697Z,73.1262207
2023-01-12T10:00:46.626Z,73.33374023
2023-01-12T10:01:47.584Z,73.33374023
2023-01-12T10:02:48.472Z,73.53515625
2023-01-12T10:03:49.142Z,73.63891602
2023-01-12T10:04:50.059Z,73.74267578
2023-01-12T10:05:51.017Z,73.43139648
2023-01-12T10:06:51.851Z,73.43139648
2023-01-12T10:07:52.666Z,72.71118164
2023-01-12T10:08:54.248Z,72.81494141
2023-01-12T10:09:55.139Z,72.91870117
2023-01-12T10:10:56.116Z,72.81494141
2023-01-12T10:11:57.976Z,72.19848633
2023-01-12T10:13:00.014Z,72.09472656
2023-01-12T10:13:59.639Z,72.30224609
2023-01-12T10:15:00.563Z,72.30224609
2023-01-12T10:16:01.621Z,72.265625
2023-01-12T10:17:02.375Z,72.265625
2023-01-12T10:18:03.246Z,72.265625
2023-01-12T10:19:04.764Z,72.16186523
2023-01-12T10:20:06.080Z,71.24023438
2023-01-12T10:21:37.534Z,71.13647461
2023-01-12T10:22:38.501Z,70.99609375
2023-01-12T10:23:39.443Z,69.97070313
2023-01-12T10:24:40.221Z,70.48339844
2023-01-12T10:25:41.809Z,71.61865234
2023-01-12T10:26:42.679Z,72.33886719
2023-01-12T10:27:44.541Z,72.95532227
2023-01-12T10:28:45.895Z,72.33886719
2023-01-12T10:29:46.701Z,71.41113281
2023-01-12T10:30:47.578Z,70.99609375
2023-01-12T10:31:48.614Z,71.20361328
2023-01-12T10:32:49.370Z,71.09985352
2023-01-12T10:33:50.360Z,70.99609375
2023-01-12T10:34:51.077Z,70.69091797
2023-01-12T10:35:51.839Z,70.99609375
2023-01-12T10:36:54.926Z,70.5871582
2023-01-12T10:37:53.663Z,70.48339844
2023-01-12T10:38:55.411Z,70.37963867
2023-01-12T10:39:56.291Z,69.86694336
2023-01-12T10:40:57.033Z,69.35424805
2023-01-12T10:41:58.436Z,69.65942383
2023-01-12T10:42:59.552Z,69.14672852
2023-01-12T10:44:00.294Z,68.59741211
2023-01-12T10:45:01.117Z,67.67578125
2023-01-12T10:46:02.034Z,66.85180664
2023-01-12T10:47:02.771Z,66.33911133
2023-01-12T10:48:03.636Z,65.79589844
2023-01-12T10:49:05.851Z,65.27709961
2023-01-12T10:50:37.169Z,64.14794922
2023-01-12T10:51:37.928Z,63.94042969
2023-01-12T10:52:38.787Z,63.83666992
2023-01-12T10:53:39.706Z,63.90991211
2023-01-12T10:54:40.680Z,63.81225586
2023-01-12T10:55:42.377Z,63.19580078
2023-01-12T10:56:43.235Z,63.70849609
2023-01-12T10:57:44.082Z,63.60473633
2023-01-12T10:58:45.975Z,63.70849609
2023-01-12T10:59:46.920Z,63.3972168
2023-01-12T11:00:47.808Z,63.50097656
2023-01-12T11:01:48.741Z,63.3972168
2023-01-12T11:02:49.384Z,63.60473633
2023-01-12T11:03:50.278Z,63.50097656
2023-01-12T11:04:51.169Z,63.60473633
2023-01-12T11:05:52.014Z,63.70849609
2023-01-12T11:06:52.812Z,63.90991211
2023-01-12T11:07:53.733Z,64.01367188
2023-01-12T11:08:55.410Z,64.01367188
2023-01-12T11:09:56.335Z,64.01367188
2023-01-12T11:10:57.447Z,64.11743164
2023-01-12T11:11:58.309Z,64.39819336
2023-01-12T11:12:59.198Z,64.50195313
2023-01-12T11:13:59.967Z,64.50195313